sensor_id;sensor_type;location;lat;lon;timestamp;P1;durP1;ratioP1;P2;durP2;ratioP2
8831;SDS011;4452;50.756;4.472;2022-08-19T00:01:21;19.55;;;11.82;;
8831;SDS011;4452;50.756;4.472;2022-08-19T00:03:48;17.73;;;12.55;;
8831;SDS011;4452;50.756;4.472;2022-08-19T00:06:14;16.70;;;12.88;;
8831;SDS011;4452;50.756;4.472;2022-08-19T00:08:40;20.40;;;14.02;;
8831;SDS011;4452;50.756;4.472;2022-08-19T00:11:06;19.65;;;14.05;;
8831;SDS011;4452;50.756;4.472;2022-08-19T00:13:32;22.73;;;14.63;;
8831;SDS011;4452;50.756;4.472;2022-08-19T00:15:58;22.13;;;16.15;;
8831;SDS011;4452;50.756;4.472;2022-08-19T00:18:25;22.05;;;15.88;;
8831;SDS011;4452;50.756;4.472;2022-08-19T00:20:51;26.77;;;17.27;;
8831;SDS011;4452;50.756;4.472;2022-08-19T00:23:17;24.63;;;17.15;;
8831;SDS011;4452;50.756;4.472;2022-08-19T00:25:44;27.83;;;18.23;;
8831;SDS011;4452;50.756;4.472;2022-08-19T00:28:09;23.63;;;17.77;;
8831;SDS011;4452;50.756;4.472;2022-08-19T00:30:36;24.80;;;18.20;;
8831;SDS011;4452;50.756;4.472;2022-08-19T00:33:02;23.38;;;18.92;;
8831;SDS011;4452;50.756;4.472;2022-08-19T00:35:27;29.85;;;18.48;;
8831;SDS011;4452;50.756;4.472;2022-08-19T00:37:53;24.45;;;18.08;;
8831;SDS011;4452;50.756;4.472;2022-08-19T00:40:19;28.25;;;19.42;;
8831;SDS011;4452;50.756;4.472;2022-08-19T00:42:46;34.50;;;22.35;;
8831;SDS011;4452;50.756;4.472;2022-08-19T00:45:13;33.13;;;22.13;;
8831;SDS011;4452;50.756;4.472;2022-08-19T00:47:42;28.77;;;20.55;;
8831;SDS011;4452;50.756;4.472;2022-08-19T00:50:09;34.40;;;20.40;;
8831;SDS011;4452;50.756;4.472;2022-08-19T00:52:42;35.30;;;21.92;;
8831;SDS011;4452;50.756;4.472;2022-08-19T00:55:10;37.65;;;23.25;;
8831;SDS011;4452;50.756;4.472;2022-08-19T00:57:42;37.50;;;23.77;;
8831;SDS011;4452;50.756;4.472;2022-08-19T01:00:13;40.43;;;24.40;;
8831;SDS011;4452;50.756;4.472;2022-08-19T01:02:42;48.75;;;28.13;;
8831;SDS011;4452;50.756;4.472;2022-08-19T01:05:11;49.13;;;27.92;;
8831;SDS011;4452;50.756;4.472;2022-08-19T01:07:46;52.20;;;29.67;;
8831;SDS011;4452;50.756;4.472;2022-08-19T01:10:16;48.13;;;29.52;;
8831;SDS011;4452;50.756;4.472;2022-08-19T01:12:48;47.25;;;27.08;;
8831;SDS011;4452;50.756;4.472;2022-08-19T01:15:16;50.55;;;30.17;;
8831;SDS011;4452;50.756;4.472;2022-08-19T01:17:45;55.50;;;31.30;;
8831;SDS011;4452;50.756;4.472;2022-08-19T01:20:19;55.25;;;31.67;;
8831;SDS011;4452;50.756;4.472;2022-08-19T01:25:17;55.97;;;32.53;;
8831;SDS011;4452;50.756;4.472;2022-08-19T01:27:46;57.10;;;32.45;;
8831;SDS011;4452;50.756;4.472;2022-08-19T01:30:14;56.45;;;33.47;;
8831;SDS011;4452;50.756;4.472;2022-08-19T01:32:42;59.80;;;33.05;;
8831;SDS011;4452;50.756;4.472;2022-08-19T01:35:08;59.47;;;33.33;;
8831;SDS011;4452;50.756;4.472;2022-08-19T01:38:09;57.13;;;33.63;;
8831;SDS011;4452;50.756;4.472;2022-08-19T01:40:33;56.25;;;33.03;;
8831;SDS011;4452;50.756;4.472;2022-08-19T01:43:00;61.33;;;33.30;;
8831;SDS011;4452;50.756;4.472;2022-08-19T01:45:27;58.45;;;32.83;;
8831;SDS011;4452;50.756;4.472;2022-08-19T01:47:54;57.85;;;32.97;;
8831;SDS011;4452;50.756;4.472;2022-08-19T01:50:21;58.42;;;34.13;;
8831;SDS011;4452;50.756;4.472;2022-08-19T01:52:47;62.58;;;33.55;;
8831;SDS011;4452;50.756;4.472;2022-08-19T01:55:14;55.60;;;31.85;;
8831;SDS011;4452;50.756;4.472;2022-08-19T01:57:44;56.10;;;32.72;;
8831;SDS011;4452;50.756;4.472;2022-08-19T02:00:15;54.15;;;31.98;;
8831;SDS011;4452;50.756;4.472;2022-08-19T02:02:44;53.00;;;30.80;;
8831;SDS011;4452;50.756;4.472;2022-08-19T02:05:10;57.78;;;32.83;;
8831;SDS011;4452;50.756;4.472;2022-08-19T02:07:37;55.95;;;32.10;;
8831;SDS011;4452;50.756;4.472;2022-08-19T02:10:05;54.45;;;30.98;;
8831;SDS011;4452;50.756;4.472;2022-08-19T02:12:32;51.40;;;31.05;;
8831;SDS011;4452;50.756;4.472;2022-08-19T02:14:58;51.97;;;31.67;;
8831;SDS011;4452;50.756;4.472;2022-08-19T02:17:26;50.83;;;30.45;;
8831;SDS011;4452;50.756;4.472;2022-08-19T02:19:53;50.65;;;30.58;;
8831;SDS011;4452;50.756;4.472;2022-08-19T02:22:20;50.53;;;30.58;;
8831;SDS011;4452;50.756;4.472;2022-08-19T02:24:46;49.80;;;30.25;;
8831;SDS011;4452;50.756;4.472;2022-08-19T02:27:13;48.75;;;29.20;;
8831;SDS011;4452;50.756;4.472;2022-08-19T02:29:39;50.60;;;30.83;;
8831;SDS011;4452;50.756;4.472;2022-08-19T02:32:06;47.42;;;27.02;;
8831;SDS011;4452;50.756;4.472;2022-08-19T02:34:32;52.20;;;28.50;;
8831;SDS011;4452;50.756;4.472;2022-08-19T02:36:58;52.40;;;29.55;;
8831;SDS011;4452;50.756;4.472;2022-08-19T02:39:24;46.70;;;27.77;;
8831;SDS011;4452;50.756;4.472;2022-08-19T02:41:50;44.38;;;27.13;;
8831;SDS011;4452;50.756;4.472;2022-08-19T02:44:17;48.10;;;27.20;;
8831;SDS011;4452;50.756;4.472;2022-08-19T02:46:44;46.83;;;27.17;;
8831;SDS011;4452;50.756;4.472;2022-08-19T02:49:11;47.50;;;27.55;;
8831;SDS011;4452;50.756;4.472;2022-08-19T02:51:41;48.08;;;26.83;;
8831;SDS011;4452;50.756;4.472;2022-08-19T02:54:08;43.35;;;25.27;;
8831;SDS011;4452;50.756;4.472;2022-08-19T02:56:35;45.63;;;25.30;;
8831;SDS011;4452;50.756;4.472;2022-08-19T02:59:02;47.58;;;25.33;;
8831;SDS011;4452;50.756;4.472;2022-08-19T03:01:34;45.97;;;25.30;;
8831;SDS011;4452;50.756;4.472;2022-08-19T03:04:00;41.13;;;21.98;;
8831;SDS011;4452;50.756;4.472;2022-08-19T03:06:29;38.40;;;22.60;;
8831;SDS011;4452;50.756;4.472;2022-08-19T03:08:55;38.17;;;21.77;;
8831;SDS011;4452;50.756;4.472;2022-08-19T03:11:23;39.80;;;22.75;;
8831;SDS011;4452;50.756;4.472;2022-08-19T03:13:54;45.03;;;23.48;;
8831;SDS011;4452;50.756;4.472;2022-08-19T03:16:21;43.97;;;24.05;;
8831;SDS011;4452;50.756;4.472;2022-08-19T03:18:48;49.97;;;24.85;;
8831;SDS011;4452;50.756;4.472;2022-08-19T03:21:19;41.40;;;24.02;;
8831;SDS011;4452;50.756;4.472;2022-08-19T03:23:47;46.92;;;23.70;;
8831;SDS011;4452;50.756;4.472;2022-08-19T03:26:13;53.30;;;25.40;;
8831;SDS011;4452;50.756;4.472;2022-08-19T03:28:43;46.85;;;25.70;;
8831;SDS011;4452;50.756;4.472;2022-08-19T03:31:11;45.83;;;25.42;;
8831;SDS011;4452;50.756;4.472;2022-08-19T03:33:39;52.33;;;25.73;;
8831;SDS011;4452;50.756;4.472;2022-08-19T03:38:36;47.53;;;23.73;;
8831;SDS011;4452;50.756;4.472;2022-08-19T03:41:04;45.63;;;24.27;;
8831;SDS011;4452;50.756;4.472;2022-08-19T03:43:33;48.60;;;26.15;;
8831;SDS011;4452;50.756;4.472;2022-08-19T03:46:05;50.83;;;26.85;;
8831;SDS011;4452;50.756;4.472;2022-08-19T03:48:33;48.55;;;25.77;;
8831;SDS011;4452;50.756;4.472;2022-08-19T03:50:59;53.05;;;26.90;;
8831;SDS011;4452;50.756;4.472;2022-08-19T03:53:29;48.30;;;25.30;;
8831;SDS011;4452;50.756;4.472;2022-08-19T03:55:56;55.88;;;27.00;;
8831;SDS011;4452;50.756;4.472;2022-08-19T03:58:24;51.85;;;25.45;;
8831;SDS011;4452;50.756;4.472;2022-08-19T04:00:53;54.08;;;27.17;;
8831;SDS011;4452;50.756;4.472;2022-08-19T04:03:23;50.88;;;24.98;;
8831;SDS011;4452;50.756;4.472;2022-08-19T04:05:49;62.95;;;27.35;;
8831;SDS011;4452;50.756;4.472;2022-08-19T04:08:15;56.95;;;26.90;;
8831;SDS011;4452;50.756;4.472;2022-08-19T04:10:45;54.55;;;27.48;;
8831;SDS011;4452;50.756;4.472;2022-08-19T04:13:11;61.72;;;28.65;;
8831;SDS011;4452;50.756;4.472;2022-08-19T04:15:40;57.42;;;25.98;;
8831;SDS011;4452;50.756;4.472;2022-08-19T04:18:08;62.28;;;29.60;;
8831;SDS011;4452;50.756;4.472;2022-08-19T04:20:45;63.30;;;29.95;;
8831;SDS011;4452;50.756;4.472;2022-08-19T04:23:12;73.00;;;30.35;;
8831;SDS011;4452;50.756;4.472;2022-08-19T04:25:39;62.70;;;28.40;;
8831;SDS011;4452;50.756;4.472;2022-08-19T04:28:06;59.28;;;26.33;;
8831;SDS011;4452;50.756;4.472;2022-08-19T04:30:42;75.40;;;32.70;;
8831;SDS011;4452;50.756;4.472;2022-08-19T04:33:10;77.07;;;33.67;;
8831;SDS011;4452;50.756;4.472;2022-08-19T04:35:40;68.20;;;28.15;;
8831;SDS011;4452;50.756;4.472;2022-08-19T04:38:08;65.57;;;29.52;;
8831;SDS011;4452;50.756;4.472;2022-08-19T04:40:34;70.47;;;29.80;;
8831;SDS011;4452;50.756;4.472;2022-08-19T04:43:24;67.80;;;28.73;;
8831;SDS011;4452;50.756;4.472;2022-08-19T04:45:50;58.97;;;25.15;;
8831;SDS011;4452;50.756;4.472;2022-08-19T04:48:16;69.38;;;30.65;;
8831;SDS011;4452;50.756;4.472;2022-08-19T04:50:44;74.55;;;30.55;;
8831;SDS011;4452;50.756;4.472;2022-08-19T04:53:10;64.38;;;29.40;;
8831;SDS011;4452;50.756;4.472;2022-08-19T04:55:38;59.42;;;25.23;;
8831;SDS011;4452;50.756;4.472;2022-08-19T04:58:07;63.03;;;28.85;;
8831;SDS011;4452;50.756;4.472;2022-08-19T05:00:33;74.75;;;31.83;;
8831;SDS011;4452;50.756;4.472;2022-08-19T05:02:58;71.07;;;27.83;;
8831;SDS011;4452;50.756;4.472;2022-08-19T05:05:24;68.38;;;31.23;;
8831;SDS011;4452;50.756;4.472;2022-08-19T05:07:49;73.25;;;30.40;;
8831;SDS011;4452;50.756;4.472;2022-08-19T05:10:15;63.63;;;29.23;;
8831;SDS011;4452;50.756;4.472;2022-08-19T05:12:41;81.20;;;32.97;;
8831;SDS011;4452;50.756;4.472;2022-08-19T05:15:07;72.25;;;30.80;;
8831;SDS011;4452;50.756;4.472;2022-08-19T05:17:36;77.78;;;29.40;;
8831;SDS011;4452;50.756;4.472;2022-08-19T05:20:03;66.65;;;30.65;;
8831;SDS011;4452;50.756;4.472;2022-08-19T05:22:48;71.50;;;31.15;;
8831;SDS011;4452;50.756;4.472;2022-08-19T05:25:16;79.20;;;32.72;;
8831;SDS011;4452;50.756;4.472;2022-08-19T05:27:44;71.22;;;31.55;;
8831;SDS011;4452;50.756;4.472;2022-08-19T05:30:10;73.10;;;32.95;;
8831;SDS011;4452;50.756;4.472;2022-08-19T05:32:37;75.53;;;31.27;;
8831;SDS011;4452;50.756;4.472;2022-08-19T05:35:04;71.95;;;30.52;;
8831;SDS011;4452;50.756;4.472;2022-08-19T05:37:30;71.30;;;31.67;;
8831;SDS011;4452;50.756;4.472;2022-08-19T05:39:56;70.03;;;29.45;;
8831;SDS011;4452;50.756;4.472;2022-08-19T05:42:23;75.70;;;30.38;;
8831;SDS011;4452;50.756;4.472;2022-08-19T05:44:49;69.25;;;31.08;;
8831;SDS011;4452;50.756;4.472;2022-08-19T05:47:16;68.15;;;29.10;;
8831;SDS011;4452;50.756;4.472;2022-08-19T05:49:43;66.28;;;30.80;;
8831;SDS011;4452;50.756;4.472;2022-08-19T05:52:11;62.47;;;29.45;;
8831;SDS011;4452;50.756;4.472;2022-08-19T05:54:40;51.70;;;23.27;;
8831;SDS011;4452;50.756;4.472;2022-08-19T05:57:07;49.78;;;22.63;;
8831;SDS011;4452;50.756;4.472;2022-08-19T05:59:34;51.17;;;23.98;;
8831;SDS011;4452;50.756;4.472;2022-08-19T06:02:02;46.17;;;22.20;;
8831;SDS011;4452;50.756;4.472;2022-08-19T06:04:29;46.55;;;23.55;;
8831;SDS011;4452;50.756;4.472;2022-08-19T06:06:55;44.75;;;21.38;;
8831;SDS011;4452;50.756;4.472;2022-08-19T06:09:21;41.33;;;22.30;;
8831;SDS011;4452;50.756;4.472;2022-08-19T06:11:49;44.58;;;21.27;;
8831;SDS011;4452;50.756;4.472;2022-08-19T06:14:26;40.72;;;20.95;;
8831;SDS011;4452;50.756;4.472;2022-08-19T06:16:53;29.02;;;16.13;;
8831;SDS011;4452;50.756;4.472;2022-08-19T06:19:20;30.27;;;17.58;;
8831;SDS011;4452;50.756;4.472;2022-08-19T06:21:49;29.45;;;16.05;;
8831;SDS011;4452;50.756;4.472;2022-08-19T06:24:16;27.95;;;15.73;;
8831;SDS011;4452;50.756;4.472;2022-08-19T06:26:46;29.52;;;14.98;;
8831;SDS011;4452;50.756;4.472;2022-08-19T06:29:13;20.15;;;12.63;;
8831;SDS011;4452;50.756;4.472;2022-08-19T06:31:43;22.25;;;12.20;;
8831;SDS011;4452;50.756;4.472;2022-08-19T06:34:11;20.45;;;11.68;;
8831;SDS011;4452;50.756;4.472;2022-08-19T06:36:38;31.05;;;12.43;;
8831;SDS011;4452;50.756;4.472;2022-08-19T06:39:10;19.67;;;11.73;;
8831;SDS011;4452;50.756;4.472;2022-08-19T06:41:39;20.95;;;12.38;;
8831;SDS011;4452;50.756;4.472;2022-08-19T06:44:07;23.95;;;12.15;;
8831;SDS011;4452;50.756;4.472;2022-08-19T06:46:33;20.58;;;11.05;;
8831;SDS011;4452;50.756;4.472;2022-08-19T06:48:59;19.38;;;11.55;;
8831;SDS011;4452;50.756;4.472;2022-08-19T06:51:25;21.13;;;11.43;;
8831;SDS011;4452;50.756;4.472;2022-08-19T06:53:52;18.48;;;10.80;;
8831;SDS011;4452;50.756;4.472;2022-08-19T06:56:20;19.05;;;10.65;;
8831;SDS011;4452;50.756;4.472;2022-08-19T06:58:50;13.57;;;8.90;;
8831;SDS011;4452;50.756;4.472;2022-08-19T07:01:18;16.75;;;8.77;;
8831;SDS011;4452;50.756;4.472;2022-08-19T07:03:45;14.45;;;8.07;;
8831;SDS011;4452;50.756;4.472;2022-08-19T07:06:13;20.17;;;10.07;;
8831;SDS011;4452;50.756;4.472;2022-08-19T07:08:42;19.73;;;8.80;;
8831;SDS011;4452;50.756;4.472;2022-08-19T07:11:14;18.40;;;8.98;;
8831;SDS011;4452;50.756;4.472;2022-08-19T07:13:42;14.25;;;8.32;;
8831;SDS011;4452;50.756;4.472;2022-08-19T07:16:12;13.25;;;7.82;;
8831;SDS011;4452;50.756;4.472;2022-08-19T07:18:39;14.30;;;8.90;;
8831;SDS011;4452;50.756;4.472;2022-08-19T07:21:07;22.40;;;9.25;;
8831;SDS011;4452;50.756;4.472;2022-08-19T07:23:34;12.60;;;8.18;;
8831;SDS011;4452;50.756;4.472;2022-08-19T07:26:04;22.52;;;9.65;;
8831;SDS011;4452;50.756;4.472;2022-08-19T07:28:32;14.27;;;8.60;;
8831;SDS011;4452;50.756;4.472;2022-08-19T07:30:57;15.95;;;8.43;;
8831;SDS011;4452;50.756;4.472;2022-08-19T07:33:23;14.88;;;8.30;;
8831;SDS011;4452;50.756;4.472;2022-08-19T07:35:49;20.20;;;8.57;;
8831;SDS011;4452;50.756;4.472;2022-08-19T07:38:15;14.57;;;8.35;;
8831;SDS011;4452;50.756;4.472;2022-08-19T07:40:41;12.32;;;6.60;;
8831;SDS011;4452;50.756;4.472;2022-08-19T07:43:08;11.93;;;7.65;;
8831;SDS011;4452;50.756;4.472;2022-08-19T07:45:34;14.93;;;8.45;;
8831;SDS011;4452;50.756;4.472;2022-08-19T07:47:59;15.07;;;7.20;;
8831;SDS011;4452;50.756;4.472;2022-08-19T07:50:25;16.98;;;7.82;;
8831;SDS011;4452;50.756;4.472;2022-08-19T07:52:51;15.50;;;8.23;;
8831;SDS011;4452;50.756;4.472;2022-08-19T07:55:18;13.27;;;8.07;;
8831;SDS011;4452;50.756;4.472;2022-08-19T07:57:49;12.10;;;7.07;;
8831;SDS011;4452;50.756;4.472;2022-08-19T08:00:17;18.88;;;8.18;;
8831;SDS011;4452;50.756;4.472;2022-08-19T08:02:43;11.93;;;7.10;;
8831;SDS011;4452;50.756;4.472;2022-08-19T08:05:09;15.43;;;7.43;;
8831;SDS011;4452;50.756;4.472;2022-08-19T08:07:54;12.07;;;7.05;;
8831;SDS011;4452;50.756;4.472;2022-08-19T08:10:38;16.25;;;7.10;;
8831;SDS011;4452;50.756;4.472;2022-08-19T08:13:04;12.85;;;6.72;;
8831;SDS011;4452;50.756;4.472;2022-08-19T08:15:30;13.75;;;6.57;;
8831;SDS011;4452;50.756;4.472;2022-08-19T08:17:56;12.50;;;6.75;;
8831;SDS011;4452;50.756;4.472;2022-08-19T08:20:22;10.75;;;6.60;;
8831;SDS011;4452;50.756;4.472;2022-08-19T08:22:49;8.35;;;6.10;;
8831;SDS011;4452;50.756;4.472;2022-08-19T08:25:33;14.40;;;6.40;;
8831;SDS011;4452;50.756;4.472;2022-08-19T08:28:00;9.70;;;5.60;;
8831;SDS011;4452;50.756;4.472;2022-08-19T08:30:27;12.40;;;5.63;;
8831;SDS011;4452;50.756;4.472;2022-08-19T08:32:54;17.80;;;5.40;;
8831;SDS011;4452;50.756;4.472;2022-08-19T08:35:20;11.55;;;5.30;;
8831;SDS011;4452;50.756;4.472;2022-08-19T08:37:48;10.60;;;5.20;;
8831;SDS011;4452;50.756;4.472;2022-08-19T08:40:25;12.35;;;5.30;;
8831;SDS011;4452;50.756;4.472;2022-08-19T08:43:09;11.68;;;5.32;;
8831;SDS011;4452;50.756;4.472;2022-08-19T08:45:56;9.63;;;4.78;;
8831;SDS011;4452;50.756;4.472;2022-08-19T08:51:12;13.73;;;3.90;;
8831;SDS011;4452;50.756;4.472;2022-08-19T08:53:43;5.03;;;3.92;;
8831;SDS011;4452;50.756;4.472;2022-08-19T08:56:11;6.30;;;3.97;;
8831;SDS011;4452;50.756;4.472;2022-08-19T09:01:32;6.65;;;3.50;;
8831;SDS011;4452;50.756;4.472;2022-08-19T09:03:58;7.70;;;3.80;;
8831;SDS011;4452;50.756;4.472;2022-08-19T09:06:26;8.05;;;3.83;;
8831;SDS011;4452;50.756;4.472;2022-08-19T09:09:05;8.07;;;3.67;;
8831;SDS011;4452;50.756;4.472;2022-08-19T09:14:24;5.05;;;3.78;;
8831;SDS011;4452;50.756;4.472;2022-08-19T09:17:14;8.93;;;3.28;;
8831;SDS011;4452;50.756;4.472;2022-08-19T09:19:50;8.05;;;5.10;;
8831;SDS011;4452;50.756;4.472;2022-08-19T09:22:20;7.18;;;3.90;;
8831;SDS011;4452;50.756;4.472;2022-08-19T09:24:47;11.32;;;4.95;;
8831;SDS011;4452;50.756;4.472;2022-08-19T09:27:14;6.03;;;4.20;;
8831;SDS011;4452;50.756;4.472;2022-08-19T09:29:40;9.10;;;4.93;;
8831;SDS011;4452;50.756;4.472;2022-08-19T09:32:06;9.77;;;4.70;;
8831;SDS011;4452;50.756;4.472;2022-08-19T09:34:32;7.32;;;4.68;;
8831;SDS011;4452;50.756;4.472;2022-08-19T09:36:58;7.57;;;4.47;;
8831;SDS011;4452;50.756;4.472;2022-08-19T09:39:25;8.27;;;4.15;;
8831;SDS011;4452;50.756;4.472;2022-08-19T09:41:51;6.32;;;4.20;;
8831;SDS011;4452;50.756;4.472;2022-08-19T09:44:17;7.35;;;4.90;;
8831;SDS011;4452;50.756;4.472;2022-08-19T09:46:45;8.57;;;4.78;;
8831;SDS011;4452;50.756;4.472;2022-08-19T09:49:18;11.75;;;4.55;;
8831;SDS011;4452;50.756;4.472;2022-08-19T09:51:49;6.97;;;4.28;;
8831;SDS011;4452;50.756;4.472;2022-08-19T09:54:16;7.25;;;4.05;;
8831;SDS011;4452;50.756;4.472;2022-08-19T09:56:43;7.95;;;4.10;;
8831;SDS011;4452;50.756;4.472;2022-08-19T09:59:10;6.70;;;4.75;;
8831;SDS011;4452;50.756;4.472;2022-08-19T10:01:37;7.40;;;4.18;;
8831;SDS011;4452;50.756;4.472;2022-08-19T10:04:03;7.43;;;3.95;;
8831;SDS011;4452;50.756;4.472;2022-08-19T10:06:33;6.70;;;4.10;;
8831;SDS011;4452;50.756;4.472;2022-08-19T10:09:02;8.02;;;3.97;;
8831;SDS011;4452;50.756;4.472;2022-08-19T10:11:31;5.82;;;3.83;;
8831;SDS011;4452;50.756;4.472;2022-08-19T10:13:58;8.15;;;4.15;;
8831;SDS011;4452;50.756;4.472;2022-08-19T10:16:24;4.68;;;4.05;;
8831;SDS011;4452;50.756;4.472;2022-08-19T10:18:50;6.72;;;4.53;;
8831;SDS011;4452;50.756;4.472;2022-08-19T10:21:21;7.93;;;4.97;;
8831;SDS011;4452;50.756;4.472;2022-08-19T10:23:54;6.25;;;3.63;;
8831;SDS011;4452;50.756;4.472;2022-08-19T10:26:26;7.50;;;4.05;;
8831;SDS011;4452;50.756;4.472;2022-08-19T10:28:54;9.07;;;5.07;;
8831;SDS011;4452;50.756;4.472;2022-08-19T10:31:22;7.05;;;4.07;;
8831;SDS011;4452;50.756;4.472;2022-08-19T10:33:50;13.07;;;4.60;;
8831;SDS011;4452;50.756;4.472;2022-08-19T10:36:23;7.93;;;4.85;;
8831;SDS011;4452;50.756;4.472;2022-08-19T10:38:55;7.40;;;4.57;;
8831;SDS011;4452;50.756;4.472;2022-08-19T10:41:28;8.63;;;4.80;;
8831;SDS011;4452;50.756;4.472;2022-08-19T10:43:56;5.90;;;4.63;;
8831;SDS011;4452;50.756;4.472;2022-08-19T10:46:25;9.82;;;4.57;;
8831;SDS011;4452;50.756;4.472;2022-08-19T10:48:52;8.23;;;4.70;;
8831;SDS011;4452;50.756;4.472;2022-08-19T10:51:18;6.13;;;4.43;;
8831;SDS011;4452;50.756;4.472;2022-08-19T10:54:03;7.75;;;5.65;;
8831;SDS011;4452;50.756;4.472;2022-08-19T10:56:30;12.43;;;6.00;;
8831;SDS011;4452;50.756;4.472;2022-08-19T10:59:14;8.07;;;5.38;;
8831;SDS011;4452;50.756;4.472;2022-08-19T11:01:43;7.13;;;5.22;;
8831;SDS011;4452;50.756;4.472;2022-08-19T11:04:10;7.25;;;6.15;;
8831;SDS011;4452;50.756;4.472;2022-08-19T11:06:39;9.68;;;6.95;;
8831;SDS011;4452;50.756;4.472;2022-08-19T11:09:06;14.63;;;7.13;;
8831;SDS011;4452;50.756;4.472;2022-08-19T11:11:33;9.20;;;6.45;;
8831;SDS011;4452;50.756;4.472;2022-08-19T11:14:10;6.03;;;5.43;;
8831;SDS011;4452;50.756;4.472;2022-08-19T11:16:37;7.30;;;5.88;;
8831;SDS011;4452;50.756;4.472;2022-08-19T11:19:04;7.35;;;6.20;;
8831;SDS011;4452;50.756;4.472;2022-08-19T11:21:35;10.63;;;6.95;;
8831;SDS011;4452;50.756;4.472;2022-08-19T11:24:07;8.20;;;6.13;;
8831;SDS011;4452;50.756;4.472;2022-08-19T11:26:34;7.90;;;5.55;;
8831;SDS011;4452;50.756;4.472;2022-08-19T11:29:02;8.88;;;5.93;;
8831;SDS011;4452;50.756;4.472;2022-08-19T11:31:29;12.30;;;7.15;;
8831;SDS011;4452;50.756;4.472;2022-08-19T11:33:57;7.63;;;6.13;;
8831;SDS011;4452;50.756;4.472;2022-08-19T11:36:24;14.77;;;6.45;;
8831;SDS011;4452;50.756;4.472;2022-08-19T11:38:51;6.97;;;6.28;;
8831;SDS011;4452;50.756;4.472;2022-08-19T11:41:18;6.25;;;4.88;;
8831;SDS011;4452;50.756;4.472;2022-08-19T11:43:46;9.23;;;5.70;;
8831;SDS011;4452;50.756;4.472;2022-08-19T11:46:12;6.13;;;5.32;;
8831;SDS011;4452;50.756;4.472;2022-08-19T11:48:39;10.75;;;5.38;;
8831;SDS011;4452;50.756;4.472;2022-08-19T11:51:09;12.50;;;4.97;;
8831;SDS011;4452;50.756;4.472;2022-08-19T11:53:44;8.00;;;5.50;;
8831;SDS011;4452;50.756;4.472;2022-08-19T11:56:11;8.73;;;5.63;;
8831;SDS011;4452;50.756;4.472;2022-08-19T11:58:38;8.77;;;5.20;;
8831;SDS011;4452;50.756;4.472;2022-08-19T12:01:14;5.20;;;4.70;;
8831;SDS011;4452;50.756;4.472;2022-08-19T12:03:42;7.55;;;4.40;;
8831;SDS011;4452;50.756;4.472;2022-08-19T12:06:13;7.43;;;4.88;;
8831;SDS011;4452;50.756;4.472;2022-08-19T12:08:40;6.38;;;4.78;;
8831;SDS011;4452;50.756;4.472;2022-08-19T12:11:08;5.40;;;4.78;;
8831;SDS011;4452;50.756;4.472;2022-08-19T12:13:35;6.03;;;4.07;;
8831;SDS011;4452;50.756;4.472;2022-08-19T12:16:07;4.72;;;3.67;;
8831;SDS011;4452;50.756;4.472;2022-08-19T12:18:40;6.90;;;4.28;;
8831;SDS011;4452;50.756;4.472;2022-08-19T12:21:11;5.95;;;4.18;;
8831;SDS011;4452;50.756;4.472;2022-08-19T12:23:38;3.90;;;3.55;;
8831;SDS011;4452;50.756;4.472;2022-08-19T12:26:05;5.93;;;3.90;;
8831;SDS011;4452;50.756;4.472;2022-08-19T12:28:31;7.60;;;3.95;;
8831;SDS011;4452;50.756;4.472;2022-08-19T12:30:57;7.82;;;3.95;;
8831;SDS011;4452;50.756;4.472;2022-08-19T12:33:22;8.27;;;3.88;;
8831;SDS011;4452;50.756;4.472;2022-08-19T12:35:51;4.20;;;3.80;;
8831;SDS011;4452;50.756;4.472;2022-08-19T12:38:17;5.43;;;3.70;;
8831;SDS011;4452;50.756;4.472;2022-08-19T12:40:46;6.28;;;3.35;;
8831;SDS011;4452;50.756;4.472;2022-08-19T12:43:14;6.13;;;3.78;;
8831;SDS011;4452;50.756;4.472;2022-08-19T12:45:41;5.45;;;3.47;;
8831;SDS011;4452;50.756;4.472;2022-08-19T12:48:07;6.70;;;3.00;;
8831;SDS011;4452;50.756;4.472;2022-08-19T12:50:34;3.35;;;2.95;;
8831;SDS011;4452;50.756;4.472;2022-08-19T12:52:59;6.25;;;3.05;;
8831;SDS011;4452;50.756;4.472;2022-08-19T12:55:25;7.13;;;3.13;;
8831;SDS011;4452;50.756;4.472;2022-08-19T12:57:53;4.70;;;2.50;;
8831;SDS011;4452;50.756;4.472;2022-08-19T13:00:19;7.65;;;2.60;;
8831;SDS011;4452;50.756;4.472;2022-08-19T13:02:47;6.22;;;2.60;;
8831;SDS011;4452;50.756;4.472;2022-08-19T13:05:18;5.47;;;2.58;;
8831;SDS011;4452;50.756;4.472;2022-08-19T13:07:48;2.80;;;2.30;;
8831;SDS011;4452;50.756;4.472;2022-08-19T13:10:16;5.15;;;2.42;;
8831;SDS011;4452;50.756;4.472;2022-08-19T13:12:45;2.53;;;2.00;;
8831;SDS011;4452;50.756;4.472;2022-08-19T13:15:12;1.90;;;1.80;;
8831;SDS011;4452;50.756;4.472;2022-08-19T13:17:39;3.35;;;2.05;;
8831;SDS011;4452;50.756;4.472;2022-08-19T13:20:09;3.28;;;2.55;;
8831;SDS011;4452;50.756;4.472;2022-08-19T13:22:36;6.22;;;2.70;;
8831;SDS011;4452;50.756;4.472;2022-08-19T13:25:03;4.43;;;2.40;;
8831;SDS011;4452;50.756;4.472;2022-08-19T13:27:32;3.08;;;2.53;;
8831;SDS011;4452;50.756;4.472;2022-08-19T13:29:59;3.85;;;2.38;;
8831;SDS011;4452;50.756;4.472;2022-08-19T13:32:43;3.25;;;2.20;;
8831;SDS011;4452;50.756;4.472;2022-08-19T13:35:27;4.78;;;1.90;;
8831;SDS011;4452;50.756;4.472;2022-08-19T13:37:53;5.28;;;1.80;;
8831;SDS011;4452;50.756;4.472;2022-08-19T13:40:20;2.15;;;1.90;;
8831;SDS011;4452;50.756;4.472;2022-08-19T13:42:49;5.18;;;2.05;;
8831;SDS011;4452;50.756;4.472;2022-08-19T13:45:19;1.67;;;1.58;;
8831;SDS011;4452;50.756;4.472;2022-08-19T13:47:48;1.70;;;1.60;;
8831;SDS011;4452;50.756;4.472;2022-08-19T13:50:17;8.35;;;1.90;;
8831;SDS011;4452;50.756;4.472;2022-08-19T13:52:47;2.15;;;2.00;;
8831;SDS011;4452;50.756;4.472;2022-08-19T13:55:14;3.63;;;2.15;;
8831;SDS011;4452;50.756;4.472;2022-08-19T13:57:40;2.40;;;1.60;;
8831;SDS011;4452;50.756;4.472;2022-08-19T14:00:07;3.42;;;1.90;;
8831;SDS011;4452;50.756;4.472;2022-08-19T14:02:38;2.30;;;1.70;;
8831;SDS011;4452;50.756;4.472;2022-08-19T14:05:06;4.15;;;1.98;;
8831;SDS011;4452;50.756;4.472;2022-08-19T14:07:34;4.55;;;2.08;;
8831;SDS011;4452;50.756;4.472;2022-08-19T14:10:01;2.95;;;1.70;;
8831;SDS011;4452;50.756;4.472;2022-08-19T14:12:28;3.33;;;1.30;;
8831;SDS011;4452;50.756;4.472;2022-08-19T14:14:53;5.38;;;1.50;;
8831;SDS011;4452;50.756;4.472;2022-08-19T14:17:19;1.35;;;1.23;;
8831;SDS011;4452;50.756;4.472;2022-08-19T14:19:44;4.72;;;1.30;;
8831;SDS011;4452;50.756;4.472;2022-08-19T14:22:10;2.75;;;1.35;;
8831;SDS011;4452;50.756;4.472;2022-08-19T14:24:39;3.85;;;1.50;;
8831;SDS011;4452;50.756;4.472;2022-08-19T14:27:05;2.00;;;1.90;;
8831;SDS011;4452;50.756;4.472;2022-08-19T14:29:31;1.58;;;1.48;;
8831;SDS011;4452;50.756;4.472;2022-08-19T14:31:58;2.05;;;1.83;;
8831;SDS011;4452;50.756;4.472;2022-08-19T14:34:24;3.38;;;2.30;;
8831;SDS011;4452;50.756;4.472;2022-08-19T14:36:51;3.42;;;1.75;;
8831;SDS011;4452;50.756;4.472;2022-08-19T14:39:18;1.58;;;1.48;;
8831;SDS011;4452;50.756;4.472;2022-08-19T14:41:43;4.85;;;1.35;;
8831;SDS011;4452;50.756;4.472;2022-08-19T14:44:10;1.75;;;1.38;;
8831;SDS011;4452;50.756;4.472;2022-08-19T14:46:38;1.50;;;1.10;;
8831;SDS011;4452;50.756;4.472;2022-08-19T14:49:05;3.55;;;1.00;;
8831;SDS011;4452;50.756;4.472;2022-08-19T14:51:32;0.70;;;0.70;;
8831;SDS011;4452;50.756;4.472;2022-08-19T14:53:58;1.70;;;0.70;;
8831;SDS011;4452;50.756;4.472;2022-08-19T14:56:28;1.95;;;0.80;;
8831;SDS011;4452;50.756;4.472;2022-08-19T14:58:55;1.77;;;1.02;;
8831;SDS011;4452;50.756;4.472;2022-08-19T15:01:24;1.45;;;0.90;;
8831;SDS011;4452;50.756;4.472;2022-08-19T15:03:51;1.98;;;1.02;;
8831;SDS011;4452;50.756;4.472;2022-08-19T15:06:21;4.20;;;1.00;;
8831;SDS011;4452;50.756;4.472;2022-08-19T15:08:48;1.20;;;1.10;;
8831;SDS011;4452;50.756;4.472;2022-08-19T15:11:17;5.07;;;1.05;;
8831;SDS011;4452;50.756;4.472;2022-08-19T15:13:46;1.33;;;1.20;;
8831;SDS011;4452;50.756;4.472;2022-08-19T15:16:13;1.55;;;1.27;;
8831;SDS011;4452;50.756;4.472;2022-08-19T15:18:42;2.05;;;1.30;;
8831;SDS011;4452;50.756;4.472;2022-08-19T15:21:10;3.35;;;1.25;;